Time;durP1;ratioP1;P1;durP2;ratioP2;P2;SDS_P1;SDS_P2;PMS_P1;PMS_P2;Temp;Humidity;BMP_temperature;BMP_pressure;BME280_temperature;BME280_humidity;BME280_pressure;Samples;Min_cycle;Max_cycle;Signal;HPM_P1;HPM_P2
2022/11/26 00:01:15;;;;;;;26.80;9.55;;;;;;;;;;4887615;29;20090;-78
2022/11/26 00:03:41;;;;;;;19.30;8.15;;;;;;;;;;4886639;29;20061;-79
2022/11/26 00:06:21;;;;;;;21.88;7.28;;;;;;;;;;4888117;29;20104;-78
2022/11/26 00:08:47;;;;;;;21.98;7.97;;;;;;;;;;4888302;29;20064;-79
2022/11/26 00:11:17;;;;;;;27.77;7.85;;;;;;;;;;4885758;29;20065;-78
2022/11/26 00:13:43;;;;;;;19.55;7.57;;;;;;;;;;4868949;29;20084;-78
2022/11/26 00:16:12;;;;;;;20.17;7.00;;;;;;;;;;4890147;29;20064;-78
2022/11/26 00:18:39;;;;;;;19.80;7.20;;;;;;;;;;4890589;29;20583;-79
2022/11/26 00:21:09;;;;;;;26.75;9.00;;;;;;;;;;4860028;29;20061;-78
2022/11/26 00:23:36;;;;;;;29.15;9.93;;;;;;;;;;4867445;29;20106;-79
2022/11/26 00:26:02;;;;;;;33.63;9.18;;;;;;;;;;4873543;29;20085;-78
2022/11/26 00:28:30;;;;;;;25.63;7.40;;;;;;;;;;4875664;29;20519;-79
2022/11/26 00:30:58;;;;;;;20.25;7.15;;;;;;;;;;4874240;29;20061;-78
2022/11/26 00:33:26;;;;;;;29.88;7.93;;;;;;;;;;4872759;29;20148;-79
2022/11/26 00:35:57;;;;;;;24.00;7.75;;;;;;;;;;4856930;29;20188;-78
2022/11/26 00:38:24;;;;;;;15.50;6.90;;;;;;;;;;4890325;29;20822;-79
2022/11/26 00:40:50;;;;;;;19.65;7.70;;;;;;;;;;4888419;29;20057;-78
2022/11/26 00:43:17;;;;;;;19.52;6.75;;;;;;;;;;4888068;29;20680;-79
2022/11/26 00:45:44;;;;;;;18.83;6.78;;;;;;;;;;4886566;29;20997;-79
2022/11/26 00:48:10;;;;;;;24.33;7.47;;;;;;;;;;4889122;29;20095;-78
2022/11/26 00:50:41;;;;;;;21.70;7.50;;;;;;;;;;4872008;29;20065;-79
2022/11/26 00:53:10;;;;;;;24.10;7.10;;;;;;;;;;4889336;29;20141;-78
2022/11/26 00:55:38;;;;;;;16.70;6.72;;;;;;;;;;4872892;29;20592;-79
2022/11/26 00:58:05;;;;;;;16.17;6.10;;;;;;;;;;4880368;29;20565;-78
2022/11/26 01:00:33;;;;;;;25.15;7.00;;;;;;;;;;4888697;29;20132;-79
2022/11/26 01:03:00;;;;;;;25.02;7.55;;;;;;;;;;4888274;29;20072;-78
2022/11/26 01:05:29;;;;;;;19.88;6.97;;;;;;;;;;4875977;29;20073;-79
2022/11/26 01:07:57;;;;;;;14.40;5.85;;;;;;;;;;4872247;29;20527;-78
2022/11/26 01:10:25;;;;;;;19.05;7.40;;;;;;;;;;4889461;29;20064;-79
2022/11/26 01:12:52;;;;;;;25.05;7.20;;;;;;;;;;4872191;29;20065;-78
2022/11/26 01:15:21;;;;;;;21.58;7.88;;;;;;;;;;4872746;29;20092;-78
2022/11/26 01:17:47;;;;;;;19.63;7.35;;;;;;;;;;4889848;29;20069;-78
2022/11/26 01:20:25;;;;;;;18.85;7.45;;;;;;;;;;4888561;29;20061;-79
2022/11/26 01:22:52;;;;;;;18.38;6.78;;;;;;;;;;4869616;29;20057;-78
2022/11/26 01:25:19;;;;;;;18.67;7.18;;;;;;;;;;4889294;29;20060;-78
2022/11/26 01:27:45;;;;;;;25.48;8.85;;;;;;;;;;4876817;29;20528;-79
2022/11/26 01:30:15;;;;;;;25.17;8.60;;;;;;;;;;4854335;29;20104;-79
2022/11/26 01:32:42;;;;;;;36.30;9.60;;;;;;;;;;4869600;29;20061;-79
2022/11/26 01:35:08;;;;;;;25.27;8.73;;;;;;;;;;4849727;29;20065;-79
2022/11/26 01:37:35;;;;;;;22.23;8.35;;;;;;;;;;4844382;29;20180;-79
2022/11/26 01:40:01;;;;;;;23.42;7.65;;;;;;;;;;4878746;29;20077;-78
2022/11/26 01:42:39;;;;;;;18.35;8.00;;;;;;;;;;4858218;29;20061;-79
2022/11/26 01:45:19;;;;;;;19.52;8.45;;;;;;;;;;4869347;29;20612;-78
2022/11/26 01:47:49;;;;;;;18.15;8.55;;;;;;;;;;4852930;29;20520;-79
2022/11/26 01:50:30;;;;;;;24.42;8.32;;;;;;;;;;4865150;29;20171;-78
2022/11/26 01:52:56;;;;;;;22.30;7.97;;;;;;;;;;4865708;29;20141;-79
2022/11/26 01:55:23;;;;;;;21.73;8.40;;;;;;;;;;4852560;29;20054;-79
2022/11/26 01:57:50;;;;;;;31.98;9.77;;;;;;;;;;4853266;29;20093;-78
2022/11/26 02:00:16;;;;;;;27.90;9.30;;;;;;;;;;4852578;29;20067;-78
2022/11/26 02:02:44;;;;;;;23.38;9.07;;;;;;;;;;4869780;29;20053;-78
2022/11/26 02:05:17;;;;;;;23.55;9.73;;;;;;;;;;4853956;29;20061;-78
2022/11/26 02:07:43;;;;;;;25.63;9.95;;;;;;;;;;4870716;29;20893;-79
2022/11/26 02:10:11;;;;;;;33.38;10.27;;;;;;;;;;4864262;29;20183;-79
2022/11/26 02:12:38;;;;;;;21.52;9.95;;;;;;;;;;4852683;29;20065;-78
2022/11/26 02:15:05;;;;;;;22.60;9.65;;;;;;;;;;4852327;29;20054;-78
2022/11/26 02:17:38;;;;;;;27.73;10.48;;;;;;;;;;4853337;29;20057;-79
2022/11/26 02:20:22;;;;;;;37.47;10.52;;;;;;;;;;4867797;29;20057;-79
2022/11/26 02:22:49;;;;;;;30.70;10.73;;;;;;;;;;4853808;29;20177;-78
2022/11/26 02:25:34;;;;;;;28.73;11.80;;;;;;;;;;4873157;29;20066;-78
2022/11/26 02:28:16;;;;;;;32.92;11.82;;;;;;;;;;4886726;29;20061;-78
2022/11/26 02:30:52;;;;;;;29.60;11.43;;;;;;;;;;4881440;29;20057;-78
2022/11/26 02:33:41;;;;;;;31.52;11.57;;;;;;;;;;4870439;29;20057;-79
2022/11/26 02:36:13;;;;;;;31.67;11.02;;;;;;;;;;4869327;29;20064;-78
2022/11/26 02:38:40;;;;;;;31.13;11.55;;;;;;;;;;4868867;29;20089;-79
2022/11/26 02:41:07;;;;;;;32.13;10.82;;;;;;;;;;4867909;29;20056;-78
2022/11/26 02:43:35;;;;;;;44.15;11.60;;;;;;;;;;4886066;29;20566;-79
2022/11/26 02:46:07;;;;;;;31.60;10.15;;;;;;;;;;4886429;29;20173;-77
2022/11/26 02:48:36;;;;;;;36.80;11.00;;;;;;;;;;4872609;29;20881;-78
2022/11/26 02:51:13;;;;;;;32.00;11.15;;;;;;;;;;4871514;29;20072;-79
2022/11/26 02:53:40;;;;;;;32.03;10.30;;;;;;;;;;4885689;29;20148;-78
2022/11/26 02:56:12;;;;;;;27.85;10.65;;;;;;;;;;4863320;29;20076;-79
2022/11/26 02:58:39;;;;;;;40.42;10.68;;;;;;;;;;4864710;29;20451;-78
2022/11/26 03:01:10;;;;;;;29.65;10.40;;;;;;;;;;4868560;29;20065;-78
2022/11/26 03:03:39;;;;;;;32.95;10.77;;;;;;;;;;4888065;29;20053;-79
2022/11/26 03:06:07;;;;;;;26.75;9.68;;;;;;;;;;4872934;29;20096;-78
2022/11/26 03:08:34;;;;;;;33.22;10.25;;;;;;;;;;4861782;29;20141;-77
2022/11/26 03:11:01;;;;;;;29.13;9.70;;;;;;;;;;4879395;29;20056;-78
2022/11/26 03:13:27;;;;;;;32.83;9.90;;;;;;;;;;4887397;29;20067;-78
2022/11/26 03:15:53;;;;;;;26.60;10.07;;;;;;;;;;4870329;29;20088;-78
2022/11/26 03:18:20;;;;;;;26.55;9.40;;;;;;;;;;4885661;29;20056;-78
2022/11/26 03:20:46;;;;;;;22.17;9.55;;;;;;;;;;4882995;29;20061;-78
2022/11/26 03:23:17;;;;;;;;;;;;;;;;;;4886706;29;20065;-78
2022/11/26 03:25:43;;;;;;;22.98;8.98;;;;;;;;;;4855548;29;44298;-77
2022/11/26 03:28:09;;;;;;;34.47;9.60;;;;;;;;;;4845818;29;20069;-78
2022/11/26 03:30:36;;;;;;;24.70;9.35;;;;;;;;;;4845550;29;20097;-79
2022/11/26 03:33:02;;;;;;;23.92;9.15;;;;;;;;;;4851037;29;20532;-79
2022/11/26 03:35:29;;;;;;;27.08;9.57;;;;;;;;;;4868581;29;20085;-78
2022/11/26 03:37:55;;;;;;;30.02;9.68;;;;;;;;;;4850834;29;20218;-78
2022/11/26 03:40:21;;;;;;;26.15;9.50;;;;;;;;;;4867974;29;20057;-78
2022/11/26 03:42:48;;;;;;;31.92;10.88;;;;;;;;;;4848559;29;20050;-78
2022/11/26 03:45:14;;;;;;;24.70;9.77;;;;;;;;;;4858292;29;20068;-79
2022/11/26 03:47:40;;;;;;;28.48;9.32;;;;;;;;;;4852537;29;20073;-78
2022/11/26 03:50:07;;;;;;;20.42;9.00;;;;;;;;;;4867967;29;20168;-78
2022/11/26 03:52:34;;;;;;;26.60;9.68;;;;;;;;;;4872325;29;20061;-78
2022/11/26 03:55:00;;;;;;;27.77;8.70;;;;;;;;;;4854091;29;20144;-78
2022/11/26 03:57:26;;;;;;;24.98;9.90;;;;;;;;;;4855619;29;20067;-79
2022/11/26 03:59:53;;;;;;;28.75;9.18;;;;;;;;;;4851211;29;20117;-78
2022/11/26 04:02:19;;;;;;;23.70;9.25;;;;;;;;;;4859996;29;20806;-78
2022/11/26 04:04:45;;;;;;;27.35;9.43;;;;;;;;;;4871692;29;20061;-79
2022/11/26 04:07:12;;;;;;;24.52;9.60;;;;;;;;;;4851434;29;20062;-79
2022/11/26 04:09:38;;;;;;;23.20;9.02;;;;;;;;;;4846604;29;20054;-79
2022/11/26 04:12:04;;;;;;;28.70;9.75;;;;;;;;;;4869226;29;20053;-79
2022/11/26 04:14:31;;;;;;;27.30;9.95;;;;;;;;;;4854540;29;20634;-79
2022/11/26 04:16:57;;;;;;;26.60;9.68;;;;;;;;;;4872097;29;20065;-79
2022/11/26 04:19:23;;;;;;;33.28;11.20;;;;;;;;;;4871953;29;20053;-79
2022/11/26 04:21:50;;;;;;;32.80;10.50;;;;;;;;;;4869145;29;20060;-78
2022/11/26 04:24:16;;;;;;;22.98;9.23;;;;;;;;;;4852857;29;21079;-78
2022/11/26 04:26:43;;;;;;;25.13;9.70;;;;;;;;;;4876457;29;20245;-78
2022/11/26 04:29:09;;;;;;;25.90;9.90;;;;;;;;;;4854005;29;20137;-79
2022/11/26 04:31:35;;;;;;;30.55;9.77;;;;;;;;;;4870622;29;20065;-79
2022/11/26 04:34:02;;;;;;;33.45;9.65;;;;;;;;;;4867249;29;20062;-79
2022/11/26 04:36:28;;;;;;;26.58;10.23;;;;;;;;;;4869831;29;20049;-79
2022/11/26 04:38:55;;;;;;;28.52;9.98;;;;;;;;;;4890413;29;20435;-79
2022/11/26 04:41:22;;;;;;;34.83;10.63;;;;;;;;;;4868819;29;20057;-79
2022/11/26 04:43:48;;;;;;;21.42;8.35;;;;;;;;;;4864278;29;20072;-78
2022/11/26 04:46:14;;;;;;;30.55;10.77;;;;;;;;;;4871458;29;20057;-79
2022/11/26 04:48:41;;;;;;;27.48;9.77;;;;;;;;;;4871230;29;20237;-79
2022/11/26 04:51:07;;;;;;;32.78;10.70;;;;;;;;;;4850055;29;20535;-79
2022/11/26 04:53:34;;;;;;;28.50;10.60;;;;;;;;;;4836291;29;20054;-79
2022/11/26 04:56:00;;;;;;;41.58;11.57;;;;;;;;;;4836380;29;20164;-78
2022/11/26 04:58:27;;;;;;;25.67;10.10;;;;;;;;;;4852783;29;20065;-79
2022/11/26 05:00:53;;;;;;;32.67;10.68;;;;;;;;;;4849877;29;20524;-78
2022/11/26 05:03:19;;;;;;;22.05;10.50;;;;;;;;;;4841739;29;20068;-77
2022/11/26 05:05:46;;;;;;;46.20;13.10;;;;;;;;;;4853914;29;20057;-78
2022/11/26 05:08:12;;;;;;;28.63;11.00;;;;;;;;;;4871643;29;20054;-79
2022/11/26 05:10:39;;;;;;;29.20;10.35;;;;;;;;;;4871701;29;20271;-77
2022/11/26 05:13:05;;;;;;;27.40;10.82;;;;;;;;;;4843448;29;20053;-79
2022/11/26 05:15:31;;;;;;;28.40;10.70;;;;;;;;;;4864358;29;20061;-79
2022/11/26 05:17:58;;;;;;;28.98;11.30;;;;;;;;;;4864596;29;20084;-78
2022/11/26 05:20:24;;;;;;;31.13;11.23;;;;;;;;;;4853225;29;20073;-79
2022/11/26 05:22:50;;;;;;;33.30;11.18;;;;;;;;;;4854478;29;20065;-78
2022/11/26 05:25:17;;;;;;;30.48;11.15;;;;;;;;;;4849599;29;20069;-79
2022/11/26 05:27:43;;;;;;;29.85;10.50;;;;;;;;;;4853377;29;20050;-78
2022/11/26 05:30:10;;;;;;;33.38;12.57;;;;;;;;;;4854543;29;20058;-77
2022/11/26 05:32:36;;;;;;;31.45;12.00;;;;;;;;;;4870073;29;20468;-78
2022/11/26 05:35:03;;;;;;;28.52;11.20;;;;;;;;;;4867886;29;20096;-78
2022/11/26 05:37:30;;;;;;;35.17;11.75;;;;;;;;;;4870952;29;20065;-79
2022/11/26 05:39:56;;;;;;;33.80;11.48;;;;;;;;;;4854568;29;20076;-77
2022/11/26 05:42:22;;;;;;;26.90;10.52;;;;;;;;;;4870174;29;20061;-78
2022/11/26 05:44:49;;;;;;;34.80;11.88;;;;;;;;;;4852032;29;20062;-79
2022/11/26 05:47:15;;;;;;;32.20;11.52;;;;;;;;;;4866091;29;20057;-79
2022/11/26 05:49:41;;;;;;;34.65;11.15;;;;;;;;;;4852185;29;21268;-79
2022/11/26 05:52:08;;;;;;;28.65;11.65;;;;;;;;;;4870514;29;20884;-78
2022/11/26 05:54:35;;;;;;;39.92;12.35;;;;;;;;;;4868329;29;20068;-78
2022/11/26 05:57:01;;;;;;;32.15;11.43;;;;;;;;;;4851448;29;21015;-78
2022/11/26 05:59:28;;;;;;;30.17;11.82;;;;;;;;;;4869022;29;20062;-78
2022/11/26 06:01:54;;;;;;;30.38;11.55;;;;;;;;;;4867931;29;20049;-78
2022/11/26 06:04:21;;;;;;;30.25;11.35;;;;;;;;;;4865253;29;20161;-79
2022/11/26 06:06:47;;;;;;;39.20;13.18;;;;;;;;;;4869482;29;20145;-78
2022/11/26 06:09:13;;;;;;;41.25;12.98;;;;;;;;;;4852194;29;20141;-78
2022/11/26 06:11:40;;;;;;;30.67;11.25;;;;;;;;;;4869972;29;20861;-79
2022/11/26 06:14:06;;;;;;;34.00;12.82;;;;;;;;;;4855763;29;20054;-78
2022/11/26 06:16:33;;;;;;;54.08;13.48;;;;;;;;;;4862677;29;20058;-78
2022/11/26 06:18:59;;;;;;;32.53;11.40;;;;;;;;;;4853857;29;20072;-79
2022/11/26 06:21:25;;;;;;;30.65;12.50;;;;;;;;;;4869225;29;20517;-78
2022/11/26 06:23:52;;;;;;;35.88;13.05;;;;;;;;;;4870026;29;20061;-78
2022/11/26 06:26:24;;;;;;;42.55;13.90;;;;;;;;;;4861224;29;20525;-78
2022/11/26 06:28:51;;;;;;;46.20;14.10;;;;;;;;;;4870136;29;20117;-78
2022/11/26 06:31:17;;;;;;;44.65;14.35;;;;;;;;;;4867538;29;20072;-79
2022/11/26 06:33:44;;;;;;;44.45;14.13;;;;;;;;;;4867134;29;20057;-78
2022/11/26 06:36:10;;;;;;;33.88;14.93;;;;;;;;;;4867829;29;20061;-78
2022/11/26 06:38:36;;;;;;;38.25;14.10;;;;;;;;;;4863261;29;20065;-78
2022/11/26 06:41:04;;;;;;;50.58;15.23;;;;;;;;;;4864752;29;20058;-78
2022/11/26 06:43:31;;;;;;;41.47;14.07;;;;;;;;;;4865595;29;20057;-79
2022/11/26 06:46:05;;;;;;;41.10;14.57;;;;;;;;;;4870279;29;20168;-78
2022/11/26 06:48:32;;;;;;;39.38;14.00;;;;;;;;;;4866956;29;20144;-78
2022/11/26 06:51:03;;;;;;;31.58;13.35;;;;;;;;;;4866909;29;20117;-79
2022/11/26 06:53:29;;;;;;;;;;;;;;;;;;4867988;29;20068;-78
2022/11/26 06:55:58;;;;;;;36.35;13.52;;;;;;;;;;4884011;29;44945;-79
2022/11/26 06:58:24;;;;;;;41.70;13.65;;;;;;;;;;4870922;29;20541;-80
2022/11/26 07:00:51;;;;;;;36.50;14.57;;;;;;;;;;4852529;29;20132;-77
2022/11/26 07:03:17;;;;;;;47.05;15.30;;;;;;;;;;4858632;29;20180;-78
2022/11/26 07:05:50;;;;;;;34.53;14.30;;;;;;;;;;4863754;29;20141;-80
2022/11/26 07:08:16;;;;;;;43.17;15.82;;;;;;;;;;4853621;29;20060;-78
2022/11/26 07:10:43;;;;;;;37.45;13.88;;;;;;;;;;4861997;29;20058;-79
2022/11/26 07:13:14;;;;;;;40.45;14.18;;;;;;;;;;4861402;29;20068;-78
2022/11/26 07:15:40;;;;;;;42.00;14.93;;;;;;;;;;4868983;29;20057;-78
2022/11/26 07:18:07;;;;;;;40.88;14.50;;;;;;;;;;4869153;29;20107;-78
2022/11/26 07:20:34;;;;;;;37.25;14.45;;;;;;;;;;4867591;29;20050;-78
2022/11/26 07:23:01;;;;;;;47.38;14.48;;;;;;;;;;4855422;29;20065;-77
2022/11/26 07:25:28;;;;;;;44.15;15.15;;;;;;;;;;4866532;29;20153;-77
2022/11/26 07:27:55;;;;;;;40.00;14.70;;;;;;;;;;4876194;29;20608;-78
2022/11/26 07:30:21;;;;;;;35.47;14.57;;;;;;;;;;4853188;29;20068;-78
2022/11/26 07:32:47;;;;;;;40.20;14.70;;;;;;;;;;4866025;29;20057;-78
2022/11/26 07:35:14;;;;;;;41.67;14.18;;;;;;;;;;4887093;29;20057;-78
2022/11/26 07:37:40;;;;;;;36.35;14.90;;;;;;;;;;4875499;29;20061;-77
2022/11/26 07:40:07;;;;;;;42.22;15.35;;;;;;;;;;4871329;29;20143;-79
2022/11/26 07:42:33;;;;;;;46.78;16.23;;;;;;;;;;4867111;29;20441;-80
2022/11/26 07:44:59;;;;;;;44.05;15.25;;;;;;;;;;4868993;29;20444;-78
2022/11/26 07:47:26;;;;;;;35.78;14.30;;;;;;;;;;4852969;29;20058;-80
2022/11/26 07:49:52;;;;;;;39.97;14.40;;;;;;;;;;4866569;29;20053;-78
2022/11/26 07:52:18;;;;;;;42.58;15.57;;;;;;;;;;4846201;29;20153;-78
2022/11/26 07:54:45;;;;;;;40.80;15.48;;;;;;;;;;4882045;29;20619;-78
2022/11/26 07:57:11;;;;;;;38.60;14.05;;;;;;;;;;4852001;29;20189;-78
2022/11/26 07:59:37;;;;;;;33.72;14.35;;;;;;;;;;4860154;29;20065;-77
2022/11/26 08:02:04;;;;;;;38.88;14.57;;;;;;;;;;4837978;29;21043;-77
2022/11/26 08:04:30;;;;;;;49.50;14.52;;;;;;;;;;4876646;29;20528;-77
2022/11/26 08:06:57;;;;;;;44.72;15.68;;;;;;;;;;4851325;29;20053;-77
2022/11/26 08:09:23;;;;;;;43.88;15.05;;;;;;;;;;4858449;29;20560;-77
2022/11/26 08:11:49;;;;;;;49.75;15.40;;;;;;;;;;4857308;29;20058;-77
2022/11/26 08:14:15;;;;;;;48.03;16.10;;;;;;;;;;4849540;29;20063;-77
2022/11/26 08:16:43;;;;;;;51.65;17.95;;;;;;;;;;4863770;29;20062;-77
2022/11/26 08:19:11;;;;;;;47.45;16.00;;;;;;;;;;4843689;29;20065;-77
2022/11/26 08:21:38;;;;;;;62.90;18.33;;;;;;;;;;4848171;29;20061;-79
2022/11/26 08:24:06;;;;;;;49.53;15.63;;;;;;;;;;4856626;29;20172;-77
2022/11/26 08:26:32;;;;;;;46.55;16.48;;;;;;;;;;4882395;29;20536;-77
2022/11/26 08:29:05;;;;;;;40.80;15.13;;;;;;;;;;4868869;29;20062;-77
2022/11/26 08:31:31;;;;;;;44.35;15.13;;;;;;;;;;4861119;29;20062;-77
2022/11/26 08:33:58;;;;;;;53.55;15.38;;;;;;;;;;4862577;29;20053;-77
2022/11/26 08:36:25;;;;;;;42.15;15.13;;;;;;;;;;4850775;29;20077;-77
2022/11/26 08:38:52;;;;;;;43.08;15.85;;;;;;;;;;4876826;29;20096;-77
2022/11/26 08:41:18;;;;;;;41.67;15.88;;;;;;;;;;4854874;29;20168;-77
2022/11/26 08:43:44;;;;;;;41.20;15.63;;;;;;;;;;4860256;29;20053;-77
2022/11/26 08:46:31;;;;;;;43.28;16.00;;;;;;;;;;4869915;29;20054;-77
2022/11/26 08:48:57;;;;;;;37.20;14.32;;;;;;;;;;4871157;29;20094;-77
2022/11/26 08:51:24;;;;;;;48.28;15.95;;;;;;;;;;4854524;29;20065;-77
2022/11/26 08:53:50;;;;;;;46.70;15.25;;;;;;;;;;4872716;29;20053;-77
2022/11/26 08:56:16;;;;;;;46.08;15.40;;;;;;;;;;4863051;29;21077;-77
2022/11/26 08:58:44;;;;;;;42.90;14.68;;;;;;;;;;4871016;29;20532;-77
2022/11/26 09:01:15;;;;;;;41.95;15.10;;;;;;;;;;4852537;29;20053;-77
2022/11/26 09:03:42;;;;;;;37.30;14.00;;;;;;;;;;4833608;29;20064;-77
2022/11/26 09:06:08;;;;;;;39.70;15.27;;;;;;;;;;4844329;29;20050;-77
2022/11/26 09:11:21;;;;;;;40.92;14.10;;;;;;;;;;4870922;29;20561;-77
2022/11/26 09:13:47;;;;;;;45.88;15.25;;;;;;;;;;4844809;29;20548;-77
2022/11/26 09:16:14;;;;;;;37.83;13.85;;;;;;;;;;4871747;29;20064;-77
2022/11/26 09:18:40;;;;;;;44.50;13.85;;;;;;;;;;4869410;29;20069;-77
2022/11/26 09:21:06;;;;;;;38.90;13.52;;;;;;;;;;4851469;29;20054;-77
2022/11/26 09:23:33;;;;;;;42.47;14.30;;;;;;;;;;4874041;29;20560;-77
2022/11/26 09:25:59;;;;;;;42.63;14.05;;;;;;;;;;4867815;29;20064;-77
2022/11/26 09:28:26;;;;;;;43.55;14.45;;;;;;;;;;4852487;29;20064;-77
2022/11/26 09:30:59;;;;;;;39.78;12.63;;;;;;;;;;4869035;29;20117;-77
2022/11/26 09:33:26;;;;;;;39.47;13.73;;;;;;;;;;4855774;29;20057;-77
2022/11/26 09:35:53;;;;;;;39.97;13.35;;;;;;;;;;4857239;29;20094;-77
2022/11/26 09:38:20;;;;;;;40.60;13.68;;;;;;;;;;4864091;29;20535;-77
2022/11/26 09:40:52;;;;;;;38.53;12.73;;;;;;;;;;4850550;29;20093;-77
2022/11/26 09:43:28;;;;;;;40.95;12.35;;;;;;;;;;4867634;29;20071;-77
2022/11/26 09:45:58;;;;;;;38.60;12.95;;;;;;;;;;4865183;29;20058;-77
2022/11/26 09:48:26;;;;;;;40.65;12.75;;;;;;;;;;4851216;29;20057;-77
2022/11/26 09:50:57;;;;;;;33.70;11.68;;;;;;;;;;4845535;29;20060;-77
2022/11/26 09:53:30;;;;;;;31.77;11.63;;;;;;;;;;4867715;29;20440;-77
2022/11/26 09:55:59;;;;;;;32.95;11.10;;;;;;;;;;4855415;29;20054;-77
2022/11/26 09:58:44;;;;;;;31.10;11.40;;;;;;;;;;4867704;29;20065;-77
2022/11/26 10:01:13;;;;;;;45.85;11.52;;;;;;;;;;4855828;29;20049;-77
2022/11/26 10:03:41;;;;;;;40.17;11.10;;;;;;;;;;4853626;29;20060;-78
2022/11/26 10:06:13;;;;;;;35.28;10.95;;;;;;;;;;4846785;29;20061;-77
2022/11/26 10:08:51;;;;;;;33.50;11.57;;;;;;;;;;4856124;29;20070;-78
2022/11/26 10:11:38;;;;;;;41.97;13.07;;;;;;;;;;4854343;29;20139;-78
2022/11/26 10:14:04;;;;;;;36.08;12.13;;;;;;;;;;4866310;29;20110;-78
2022/11/26 10:16:41;;;;;;;41.33;11.13;;;;;;;;;;4853414;29;20072;-77
2022/11/26 10:19:17;;;;;;;45.78;12.88;;;;;;;;;;4872158;29;20065;-78
2022/11/26 10:21:45;;;;;;;38.45;10.70;;;;;;;;;;4873982;29;20136;-78
2022/11/26 10:24:29;;;;;;;30.00;11.38;;;;;;;;;;4858456;29;20064;-78
2022/11/26 10:26:56;;;;;;;34.03;11.27;;;;;;;;;;4891771;29;20061;-78
2022/11/26 10:29:24;;;;;;;31.02;10.75;;;;;;;;;;4886943;29;20093;-77
2022/11/26 10:31:58;;;;;;;35.00;11.00;;;;;;;;;;4868176;29;20061;-78
2022/11/26 10:34:38;;;;;;;40.72;11.27;;;;;;;;;;4905552;29;20060;-77
2022/11/26 10:37:05;;;;;;;31.85;11.35;;;;;;;;;;4885826;29;20348;-77
2022/11/26 10:39:31;;;;;;;32.83;10.73;;;;;;;;;;4874620;29;20056;-78
2022/11/26 10:42:02;;;;;;;32.03;10.15;;;;;;;;;;4888408;29;20068;-77
2022/11/26 10:44:28;;;;;;;;;;;;;;;;;;4869236;29;20057;-77
2022/11/26 10:46:55;;;;;;;26.63;9.93;;;;;;;;;;4883058;29;46629;-77
2022/11/26 10:49:23;;;;;;;27.08;9.63;;;;;;;;;;4863344;29;20538;-77
2022/11/26 10:51:50;;;;;;;27.08;9.07;;;;;;;;;;4869441;29;20156;-78
2022/11/26 10:54:22;;;;;;;28.98;10.10;;;;;;;;;;4880111;29;20057;-79
2022/11/26 10:56:52;;;;;;;32.05;9.70;;;;;;;;;;4881614;29;20060;-79
2022/11/26 10:59:29;;;;;;;28.63;8.77;;;;;;;;;;4866846;29;20061;-79
2022/11/26 11:02:00;;;;;;;25.55;8.45;;;;;;;;;;4888628;29;20052;-78
2022/11/26 11:04:32;;;;;;;34.03;9.40;;;;;;;;;;4865486;29;20057;-78
2022/11/26 11:06:59;;;;;;;25.77;7.90;;;;;;;;;;4878632;29;20132;-80
2022/11/26 11:09:26;;;;;;;23.17;8.23;;;;;;;;;;4854874;29;20057;-79
2022/11/26 11:12:12;;;;;;;25.17;8.13;;;;;;;;;;4874250;29;20088;-79
2022/11/26 11:14:39;;;;;;;25.10;8.60;;;;;;;;;;4878866;29;20160;-77
2022/11/26 11:17:22;;;;;;;27.63;8.50;;;;;;;;;;4874523;29;20084;-79
2022/11/26 11:19:49;;;;;;;31.20;8.77;;;;;;;;;;4867737;29;20065;-79
2022/11/26 11:22:19;;;;;;;25.35;7.82;;;;;;;;;;4886434;29;20071;-79
2022/11/26 11:24:46;;;;;;;28.70;8.13;;;;;;;;;;4882847;29;20105;-79
2022/11/26 11:27:23;;;;;;;28.88;8.15;;;;;;;;;;4884984;29;20509;-79
2022/11/26 11:29:50;;;;;;;30.45;8.00;;;;;;;;;;4868686;29;20081;-78
2022/11/26 11:32:35;;;;;;;22.88;7.95;;;;;;;;;;4887318;29;20064;-79
2022/11/26 11:35:31;;;;;;;22.35;7.28;;;;;;;;;;4879349;29;21297;-79
2022/11/26 11:37:58;;;;;;;25.88;8.35;;;;;;;;;;4874012;29;20049;-79
2022/11/26 11:40:27;;;;;;;19.27;7.07;;;;;;;;;;4887477;29;20067;-79
2022/11/26 11:42:58;;;;;;;24.20;7.40;;;;;;;;;;4872909;29;20871;-78
2022/11/26 11:45:33;;;;;;;26.52;6.80;;;;;;;;;;4882430;29;20061;-79
2022/11/26 11:48:07;;;;;;;21.30;6.20;;;;;;;;;;4889660;29;20140;-79
2022/11/26 11:50:47;;;;;;;19.35;6.30;;;;;;;;;;4889328;29;20053;-78
2022/11/26 11:53:32;;;;;;;14.50;5.60;;;;;;;;;;4882862;29;20509;-78
2022/11/26 11:56:18;;;;;;;24.88;6.90;;;;;;;;;;4892517;29;20052;-79
2022/11/26 11:58:52;;;;;;;31.85;6.25;;;;;;;;;;4867829;29;20148;-79
2022/11/26 12:01:21;;;;;;;25.10;7.65;;;;;;;;;;4873527;29;20061;-79
2022/11/26 12:03:51;;;;;;;21.80;6.70;;;;;;;;;;4879336;29;20061;-79
2022/11/26 12:06:38;;;;;;;24.70;6.93;;;;;;;;;;4878076;29;20061;-79
2022/11/26 12:09:24;;;;;;;18.92;6.88;;;;;;;;;;4875497;29;20063;-79
2022/11/26 12:12:03;;;;;;;25.10;6.05;;;;;;;;;;4871319;29;20065;-80
2022/11/26 12:14:38;;;;;;;25.30;6.38;;;;;;;;;;4874875;29;20151;-78
2022/11/26 12:17:09;;;;;;;23.83;6.75;;;;;;;;;;4868327;29;20525;-79
2022/11/26 12:19:57;;;;;;;20.80;6.75;;;;;;;;;;4888781;29;20086;-79
2022/11/26 12:22:27;;;;;;;18.25;6.07;;;;;;;;;;4884584;29;20084;-79
2022/11/26 12:25:13;;;;;;;18.70;6.45;;;;;;;;;;4884480;29;20172;-79
2022/11/26 12:27:43;;;;;;;18.00;5.43;;;;;;;;;;4875178;29;20061;-80
2022/11/26 12:30:14;;;;;;;20.77;6.38;;;;;;;;;;4881589;29;20534;-80
2022/11/26 12:32:48;;;;;;;17.80;5.68;;;;;;;;;;4901840;29;20056;-79
2022/11/26 12:35:18;;;;;;;21.20;6.28;;;;;;;;;;4890960;29;20078;-77
2022/11/26 12:37:49;;;;;;;22.88;6.45;;;;;;;;;;4872289;29;20077;-79
2022/11/26 12:40:34;;;;;;;20.25;6.15;;;;;;;;;;4865460;29;20445;-80
2022/11/26 12:43:08;;;;;;;23.48;8.40;;;;;;;;;;4869507;29;20069;-78
2022/11/26 12:45:53;;;;;;;15.52;5.43;;;;;;;;;;4861620;29;20144;-79
2022/11/26 12:48:23;;;;;;;29.08;7.45;;;;;;;;;;4869605;29;20678;-79
2022/11/26 12:50:54;;;;;;;21.80;7.40;;;;;;;;;;4874043;29;20057;-79
2022/11/26 12:53:24;;;;;;;20.40;6.53;;;;;;;;;;4868422;29;20068;-77
2022/11/26 12:55:59;;;;;;;14.82;5.55;;;;;;;;;;4887455;29;20061;-80
2022/11/26 12:58:31;;;;;;;18.63;5.70;;;;;;;;;;4876426;29;20155;-77
2022/11/26 13:00:57;;;;;;;22.38;7.63;;;;;;;;;;4888383;29;20524;-79
2022/11/26 13:03:27;;;;;;;16.83;5.40;;;;;;;;;;4884434;29;20060;-79
2022/11/26 13:06:01;;;;;;;22.13;6.18;;;;;;;;;;4865928;29;20033;-77
2022/11/26 13:08:38;;;;;;;21.55;6.07;;;;;;;;;;4886475;29;20510;-79
2022/11/26 13:11:11;;;;;;;19.58;6.25;;;;;;;;;;4885729;29;20130;-79
2022/11/26 13:13:41;;;;;;;23.00;5.72;;;;;;;;;;4859914;29;20562;-79
2022/11/26 13:16:21;;;;;;;18.92;5.60;;;;;;;;;;4881830;29;20061;-80
2022/11/26 13:18:49;;;;;;;16.67;5.80;;;;;;;;;;4871609;29;20527;-79
2022/11/26 13:21:33;;;;;;;20.00;5.88;;;;;;;;;;4890505;29;20061;-79
2022/11/26 13:24:09;;;;;;;27.92;5.95;;;;;;;;;;4869991;29;20057;-79
2022/11/26 13:26:59;;;;;;;21.73;6.35;;;;;;;;;;4881324;29;20151;-79
2022/11/26 13:29:40;;;;;;;19.23;5.78;;;;;;;;;;4898646;29;20152;-80
2022/11/26 13:32:13;;;;;;;16.55;5.40;;;;;;;;;;4878549;29;20064;-77
2022/11/26 13:34:57;;;;;;;29.10;6.18;;;;;;;;;;4902163;29;20067;-78
2022/11/26 13:37:23;;;;;;;19.85;6.10;;;;;;;;;;4871291;29;20089;-79
2022/11/26 13:39:59;;;;;;;18.02;4.95;;;;;;;;;;4861310;29;20111;-78
2022/11/26 13:42:31;;;;;;;22.60;6.13;;;;;;;;;;4889315;29;20057;-79
2022/11/26 13:45:13;;;;;;;16.30;5.75;;;;;;;;;;4888679;29;20566;-79
2022/11/26 13:47:46;;;;;;;16.30;4.97;;;;;;;;;;4884755;29;20068;-79
2022/11/26 13:50:34;;;;;;;21.67;5.40;;;;;;;;;;4885312;29;20084;-78
2022/11/26 13:53:03;;;;;;;19.83;5.40;;;;;;;;;;4890593;29;20052;-78
2022/11/26 13:55:41;;;;;;;15.52;5.32;;;;;;;;;;4887350;29;20102;-79
2022/11/26 13:58:13;;;;;;;20.95;5.40;;;;;;;;;;4880821;29;20061;-78
2022/11/26 14:00:39;;;;;;;17.90;5.47;;;;;;;;;;4884042;29;20163;-76
2022/11/26 14:03:08;;;;;;;19.45;5.20;;;;;;;;;;4873561;29;20061;-76
2022/11/26 14:05:49;;;;;;;21.20;5.75;;;;;;;;;;4873187;29;20527;-77
2022/11/26 14:08:37;;;;;;;23.00;5.65;;;;;;;;;;4879396;29;20057;-76
2022/11/26 14:11:04;;;;;;;13.75;4.30;;;;;;;;;;4886330;29;20064;-76
2022/11/26 14:13:31;;;;;;;17.90;4.25;;;;;;;;;;4887157;29;20508;-76
2022/11/26 14:15:58;;;;;;;33.28;4.90;;;;;;;;;;4882634;29;20057;-76
2022/11/26 14:18:48;;;;;;;21.45;4.93;;;;;;;;;;4898173;29;20103;-77
2022/11/26 14:21:15;;;;;;;25.00;4.70;;;;;;;;;;4871816;29;20058;-76
2022/11/26 14:23:43;;;;;;;20.27;4.43;;;;;;;;;;4862670;29;20033;-76
2022/11/26 14:26:12;;;;;;;18.52;5.32;;;;;;;;;;4862805;29;20543;-77
2022/11/26 14:28:38;;;;;;;25.30;5.30;;;;;;;;;;4867833;29;20053;-77
2022/11/26 14:31:19;;;;;;;22.15;5.10;;;;;;;;;;4857676;29;20066;-77
2022/11/26 14:33:47;;;;;;;21.42;4.80;;;;;;;;;;4865860;29;20529;-76
2022/11/26 14:36:20;;;;;;;20.13;5.20;;;;;;;;;;4857815;29;20694;-76
2022/11/26 14:39:02;;;;;;;17.05;5.00;;;;;;;;;;4860574;29;20063;-76
2022/11/26 14:41:32;;;;;;;20.00;4.85;;;;;;;;;;4862239;29;20440;-77